Time;durP1;ratioP1;P1;durP2;ratioP2;P2;SDS_P1;SDS_P2;PMS_P1;PMS_P2;Temp;Humidity;BMP_temperature;BMP_pressure;BME280_temperature;BME280_humidity;BME280_pressure;Samples;Min_cycle;Max_cycle;Signal;HPM_P1;HPM_P2
2023/01/26 00:01:46;;;;;;;23.47;17.17;;;0.40;99.90;;;;;;4977826;28;20173;-78
2023/01/26 00:04:11;;;;;;;25.23;17.60;;;0.50;99.90;;;;;;4976809;28;20180;-78
2023/01/26 00:06:37;;;;;;;25.47;17.17;;;0.50;99.90;;;;;;4976389;28;20212;-78
2023/01/26 00:09:03;;;;;;;26.47;18.17;;;0.60;99.90;;;;;;4977888;28;20235;-78
2023/01/26 00:11:29;;;;;;;27.20;18.97;;;0.60;99.90;;;;;;4976470;28;20284;-78
2023/01/26 00:13:56;;;;;;;30.20;20.30;;;0.60;99.90;;;;;;4976508;28;20204;-78
2023/01/26 00:16:22;;;;;;;28.53;21.30;;;0.50;99.90;;;;;;4977495;28;20200;-78
2023/01/26 00:18:48;;;;;;;28.40;19.40;;;0.50;99.90;;;;;;4976204;28;20710;-78
2023/01/26 00:21:16;;;;;;;30.97;20.53;;;0.40;99.90;;;;;;4976723;28;20183;-78
2023/01/26 00:23:41;;;;;;;29.63;20.57;;;0.30;99.90;;;;;;4976732;28;20193;-78
2023/01/26 00:26:09;;;;;;;28.83;20.67;;;0.40;99.90;;;;;;4977743;28;20655;-78
2023/01/26 00:28:35;;;;;;;26.23;18.03;;;0.40;99.90;;;;;;4977453;28;20211;-78
2023/01/26 00:31:06;;;;;;;26.93;17.77;;;0.50;99.90;;;;;;4977363;28;20185;-78
2023/01/26 00:33:32;;;;;;;28.23;19.63;;;0.40;99.90;;;;;;4976359;28;20216;-78
2023/01/26 00:35:58;;;;;;;27.37;19.37;;;0.30;99.90;;;;;;4977789;28;20256;-78
2023/01/26 00:38:23;;;;;;;29.10;18.37;;;0.30;99.90;;;;;;4976721;28;20243;-78
2023/01/26 00:40:49;;;;;;;28.33;19.17;;;0.20;99.90;;;;;;4976261;28;20188;-78
2023/01/26 00:43:15;;;;;;;27.30;18.90;;;0.20;99.90;;;;;;4976556;28;20244;-78
2023/01/26 00:45:40;;;;;;;28.60;19.20;;;0.20;99.90;;;;;;4977672;28;20252;-78
2023/01/26 00:48:06;;;;;;;27.87;19.67;;;0.20;99.90;;;;;;4977104;28;20219;-78
2023/01/26 00:50:32;;;;;;;30.83;19.77;;;0.30;99.90;;;;;;4976199;28;20276;-78
2023/01/26 00:52:58;;;;;;;30.23;20.33;;;0.40;99.90;;;;;;4976598;28;20181;-78
2023/01/26 00:55:31;;;;;;;26.50;19.33;;;0.50;99.90;;;;;;4975713;28;20223;-78
2023/01/26 00:57:57;;;;;;;27.67;19.13;;;0.60;99.90;;;;;;4977330;28;20215;-78
2023/01/26 01:00:23;;;;;;;27.87;18.77;;;0.60;99.90;;;;;;4976521;28;20227;-78
2023/01/26 01:02:48;;;;;;;25.73;18.43;;;0.60;99.90;;;;;;4976692;28;20188;-78
2023/01/26 01:05:14;;;;;;;27.63;19.40;;;0.60;99.90;;;;;;4976799;28;20177;-78
2023/01/26 01:07:39;;;;;;;28.13;19.13;;;0.50;99.90;;;;;;4975605;28;20217;-78
2023/01/26 01:10:07;;;;;;;28.83;18.77;;;0.50;99.90;;;;;;4975523;28;20184;-78
2023/01/26 01:12:33;;;;;;;27.80;19.60;;;0.50;99.90;;;;;;4975652;28;20666;-78
2023/01/26 01:14:58;;;;;;;29.73;19.37;;;0.40;99.90;;;;;;4975440;28;20185;-78
2023/01/26 01:17:24;;;;;;;31.03;20.07;;;0.20;99.90;;;;;;4975917;28;20242;-78
2023/01/26 01:19:49;;;;;;;33.97;21.20;;;0.20;99.90;;;;;;4975671;28;20247;-78
2023/01/26 01:22:15;;;;;;;30.23;20.17;;;0.20;99.90;;;;;;4976211;28;20309;-78
2023/01/26 01:24:41;;;;;;;31.37;19.60;;;0.20;99.90;;;;;;4975587;28;20656;-78
2023/01/26 01:27:06;;;;;;;30.10;19.67;;;0.30;99.90;;;;;;4975357;28;20207;-78
2023/01/26 01:29:32;;;;;;;33.07;21.17;;;0.30;99.90;;;;;;4975156;28;20267;-78
2023/01/26 01:31:57;;;;;;;32.53;21.33;;;0.30;99.90;;;;;;4975103;28;20185;-78
2023/01/26 01:34:23;;;;;;;29.83;20.40;;;0.30;99.90;;;;;;4975062;28;20177;-78
2023/01/26 01:36:49;;;;;;;31.17;21.10;;;0.30;99.90;;;;;;4976367;28;20682;-78
2023/01/26 01:39:14;;;;;;;29.53;19.23;;;0.20;99.90;;;;;;4974992;28;20277;-78
2023/01/26 01:41:40;;;;;;;26.87;18.27;;;0.20;99.90;;;;;;4974809;28;20184;-78
2023/01/26 01:44:13;;;;;;;27.43;18.80;;;0.20;99.90;;;;;;4974909;28;20181;-78
2023/01/26 01:46:44;;;;;;;27.10;18.50;;;0.20;99.90;;;;;;4974826;28;20682;-78
2023/01/26 01:49:15;;;;;;;28.80;19.50;;;0.20;99.90;;;;;;4976075;28;20200;-78
2023/01/26 01:51:45;;;;;;;28.03;19.67;;;0.30;99.90;;;;;;4976110;28;20197;-78
2023/01/26 01:54:15;;;;;;;28.20;18.70;;;0.20;99.90;;;;;;4975876;28;20247;-78
2023/01/26 01:56:47;;;;;;;30.53;19.80;;;0.20;99.90;;;;;;4974474;28;20212;-78
2023/01/26 01:59:28;;;;;;;31.43;19.60;;;0.20;99.90;;;;;;4975184;28;20173;-78
2023/01/26 02:01:55;;;;;;;27.77;18.37;;;0.00;99.90;;;;;;4975835;28;20173;-78
2023/01/26 02:04:22;;;;;;;32.20;20.80;;;0.10;99.90;;;;;;4974586;28;20243;-78
2023/01/26 02:06:51;;;;;;;34.87;21.67;;;0.10;99.90;;;;;;4974567;28;20299;-78
2023/01/26 02:12:11;;;;;;;31.17;19.60;;;0.30;99.90;;;;;;4976035;28;20183;-78
2023/01/26 02:14:38;;;;;;;33.40;20.20;;;0.30;99.90;;;;;;4975022;28;20181;-76
2023/01/26 02:17:03;;;;;;;31.83;19.57;;;0.30;99.90;;;;;;4974131;28;20197;-76
2023/01/26 02:19:35;;;;;;;30.67;19.00;;;0.40;99.90;;;;;;4975650;28;20201;-76
2023/01/26 02:22:09;;;;;;;29.43;18.97;;;0.40;99.90;;;;;;4975123;28;20173;-76
2023/01/26 02:24:38;;;;;;;28.50;19.07;;;0.40;99.90;;;;;;4975760;28;20184;-76
2023/01/26 02:27:04;;;;;;;30.37;19.37;;;0.50;99.90;;;;;;4975223;28;20215;-76
2023/01/26 02:29:30;;;;;;;29.33;18.73;;;0.40;99.90;;;;;;4973905;28;20206;-75
2023/01/26 02:31:56;;;;;;;33.33;19.70;;;0.30;99.90;;;;;;4975508;28;20184;-75
2023/01/26 02:34:24;;;;;;;29.70;18.70;;;0.30;99.90;;;;;;4973961;28;20284;-75
2023/01/26 02:36:57;;;;;;;26.43;17.20;;;0.10;99.90;;;;;;4973896;28;20251;-75
2023/01/26 02:39:37;;;;;;;26.10;17.50;;;0.10;99.90;;;;;;4974182;28;20195;-75
2023/01/26 02:44:47;;;;;;;23.80;16.17;;;0.00;99.90;;;;;;4975576;28;20227;-75
2023/01/26 02:47:17;;;;;;;21.20;14.83;;;0.00;99.90;;;;;;4973868;28;20209;-75
2023/01/26 02:49:45;;;;;;;25.03;16.73;;;-0.10;99.90;;;;;;4973897;28;20185;-75
2023/01/26 02:52:11;;;;;;;22.00;16.23;;;-0.20;99.90;;;;;;4974086;28;20658;-75
2023/01/26 02:57:21;;;;;;;22.60;14.60;;;-0.10;99.90;;;;;;4975052;28;20251;-75
2023/01/26 02:59:47;;;;;;;21.00;14.77;;;-0.10;99.90;;;;;;4975398;28;20173;-75
2023/01/26 03:02:12;;;;;;;21.57;15.33;;;0.00;99.90;;;;;;4974744;28;20205;-75
2023/01/26 03:04:38;;;;;;;23.80;14.87;;;0.00;99.90;;;;;;4973746;28;20189;-75
2023/01/26 03:07:04;;;;;;;21.33;14.83;;;0.10;99.90;;;;;;4974868;28;20197;-75
2023/01/26 03:09:29;;;;;;;20.97;14.20;;;0.00;99.90;;;;;;4975307;28;20208;-75
2023/01/26 03:11:55;;;;;;;20.60;14.40;;;-0.10;99.90;;;;;;4974130;28;20177;-75
2023/01/26 03:14:20;;;;;;;21.67;15.17;;;-0.20;99.90;;;;;;4974136;28;20183;-75
2023/01/26 03:16:46;;;;;;;23.23;14.73;;;-0.10;99.90;;;;;;4973539;28;20620;-75
2023/01/26 03:27:27;;;;;;;21.00;12.83;;;0.00;99.90;;;;;;4975054;28;20259;-75
2023/01/26 03:29:56;;;;;;;22.13;13.80;;;0.10;99.90;;;;;;4973480;28;20184;-75
2023/01/26 03:32:23;;;;;;;19.67;13.33;;;0.00;99.90;;;;;;4974703;28;20264;-75
2023/01/26 03:34:49;;;;;;;16.57;11.93;;;0.10;99.90;;;;;;4974623;28;20184;-75
2023/01/26 03:37:14;;;;;;;17.10;11.93;;;0.00;99.90;;;;;;4973701;28;20192;-75
2023/01/26 03:56:21;;;;;;;15.63;10.97;;;0.00;99.90;;;;;;4974997;28;20196;-75
2023/01/26 03:58:56;;;;;;;15.50;10.90;;;0.00;99.90;;;;;;4974417;28;20172;-75
2023/01/26 04:01:27;;;;;;;13.70;10.00;;;0.00;99.90;;;;;;4974342;28;20172;-75
2023/01/26 04:09:27;;;;;;;12.13;9.43;;;-0.20;99.90;;;;;;4978313;28;20236;-75
2023/01/26 04:11:53;;;;;;;13.87;10.67;;;-0.20;99.90;;;;;;4976926;28;20204;-75
2023/01/26 04:22:59;;;;;;;11.83;8.63;;;-0.40;99.90;;;;;;4978570;28;20259;-75
2023/01/26 04:25:25;;;;;;;12.63;9.10;;;-0.40;99.90;;;;;;4976598;28;20213;-75
2023/01/26 04:27:50;;;;;;;10.37;7.80;;;-0.50;99.90;;;;;;4976638;28;20207;-75
2023/01/26 04:30:16;;;;;;;10.00;8.27;;;-0.40;99.90;;;;;;4976406;28;20177;-75
2023/01/26 04:32:44;;;;;;;10.97;8.17;;;-0.30;99.90;;;;;;4976293;28;20177;-75
2023/01/26 04:35:10;;;;;;;9.90;7.50;;;-0.30;99.90;;;;;;4977721;28;20220;-75
2023/01/26 04:37:36;;;;;;;10.70;8.17;;;-0.30;99.90;;;;;;4976078;28;20282;-75
2023/01/26 04:40:03;;;;;;;10.03;7.57;;;-0.20;99.90;;;;;;4976311;28;20267;-75
2023/01/26 04:42:28;;;;;;;9.00;7.73;;;-0.20;99.90;;;;;;4976158;28;20288;-75
2023/01/26 04:44:54;;;;;;;10.47;7.77;;;-0.20;99.90;;;;;;4976140;28;20208;-75
2023/01/26 04:47:20;;;;;;;10.10;7.97;;;-0.20;99.90;;;;;;4975903;28;20204;-75
2023/01/26 04:49:46;;;;;;;9.80;7.40;;;-0.30;99.90;;;;;;4975990;28;20173;-75
2023/01/26 04:52:12;;;;;;;9.13;7.53;;;-0.20;99.90;;;;;;4975785;28;20181;-75
2023/01/26 04:54:38;;;;;;;10.77;7.70;;;-0.10;99.90;;;;;;4977172;28;20180;-75
2023/01/26 04:57:04;;;;;;;12.43;7.80;;;-0.10;99.90;;;;;;4975749;28;20232;-75
2023/01/26 04:59:30;;;;;;;9.93;7.83;;;0.00;99.90;;;;;;4976874;28;20212;-76
2023/01/26 05:01:56;;;;;;;11.67;9.53;;;-0.10;99.90;;;;;;4975791;28;20275;-76
2023/01/26 05:04:21;;;;;;;12.70;10.90;;;-0.10;99.90;;;;;;4975625;28;20184;-76
2023/01/26 05:06:47;;;;;;;11.37;7.80;;;-0.10;99.90;;;;;;4975436;28;20204;-76
2023/01/26 05:09:12;;;;;;;10.27;7.97;;;-0.10;99.90;;;;;;4975609;28;20264;-76
2023/01/26 05:11:38;;;;;;;8.63;6.93;;;-0.10;99.90;;;;;;4976745;28;20183;-76
2023/01/26 05:14:03;;;;;;;10.17;7.20;;;-0.20;99.90;;;;;;4975582;28;20219;-75
2023/01/26 05:17:05;;;;;;;10.00;7.63;;;-0.20;99.90;;;;;;4975255;28;20228;-75
2023/01/26 05:19:30;;;;;;;11.60;7.97;;;-0.10;99.90;;;;;;4975378;28;20283;-76
2023/01/26 05:21:56;;;;;;;10.80;7.77;;;-0.10;99.90;;;;;;4975476;28;20212;-76
2023/01/26 05:24:21;;;;;;;10.57;7.63;;;-0.10;99.90;;;;;;4976463;28;20181;-76
2023/01/26 05:27:19;;;;;;;10.93;8.13;;;-0.10;99.90;;;;;;4975250;28;20209;-76
2023/01/26 05:29:32;;;;;;;9.93;8.07;;;0.00;99.90;;;;;;4976289;28;20224;-76
2023/01/26 05:31:58;;;;;;;10.93;8.17;;;0.00;99.90;;;;;;4975859;28;20243;-76
2023/01/26 05:34:23;;;;;;;8.97;7.43;;;0.00;99.90;;;;;;4976248;28;20248;-76
2023/01/26 05:36:49;;;;;;;10.37;7.70;;;0.00;99.90;;;;;;4974858;28;20702;-76
2023/01/26 05:39:15;;;;;;;10.30;7.53;;;0.10;99.90;;;;;;4975182;28;20189;-76
2023/01/26 05:41:40;;;;;;;7.57;6.10;;;0.00;99.90;;;;;;4974782;28;20188;-76
2023/01/26 05:44:07;;;;;;;8.43;6.83;;;0.10;99.90;;;;;;4974815;28;20203;-77
2023/01/26 05:46:32;;;;;;;9.40;6.87;;;0.10;99.90;;;;;;4975874;28;20224;-76
2023/01/26 05:48:58;;;;;;;10.57;7.60;;;0.00;99.90;;;;;;4975189;28;20582;-76
2023/01/26 05:51:23;;;;;;;9.77;7.53;;;0.10;99.90;;;;;;4975375;28;20643;-76
2023/01/26 05:53:49;;;;;;;8.90;7.30;;;0.10;99.90;;;;;;4974545;28;20177;-76
2023/01/26 05:56:14;;;;;;;10.63;7.70;;;0.00;99.90;;;;;;4974412;28;20204;-76
2023/01/26 05:58:40;;;;;;;8.80;7.10;;;0.10;99.90;;;;;;4974476;28;20181;-76
2023/01/26 06:01:05;;;;;;;10.37;7.00;;;0.10;99.90;;;;;;4974709;28;20181;-76
2023/01/26 06:03:31;;;;;;;10.87;7.30;;;0.00;99.90;;;;;;4975797;28;20593;-76
2023/01/26 06:05:56;;;;;;;9.27;6.77;;;0.10;99.90;;;;;;4974630;28;20288;-76
2023/01/26 06:08:22;;;;;;;9.53;7.43;;;0.10;99.90;;;;;;4975214;28;20211;-76
2023/01/26 06:10:48;;;;;;;9.37;7.20;;;0.10;99.90;;;;;;4974176;28;20179;-76
2023/01/26 06:13:13;;;;;;;10.80;7.30;;;0.00;99.90;;;;;;4975687;28;20196;-76
2023/01/26 06:15:39;;;;;;;8.87;7.30;;;0.00;99.90;;;;;;4976055;28;20538;-76
2023/01/26 06:18:04;;;;;;;11.43;7.63;;;-0.10;99.90;;;;;;4974392;28;20212;-76
2023/01/26 06:20:30;;;;;;;8.77;7.30;;;0.00;99.90;;;;;;4973967;28;20205;-75
2023/01/26 06:23:00;;;;;;;8.87;6.37;;;0.10;99.90;;;;;;4974333;28;20236;-76
2023/01/26 06:25:25;;;;;;;10.97;7.83;;;0.00;99.90;;;;;;4974780;28;20177;-76
2023/01/26 06:28:19;;;;;;;11.77;7.80;;;0.00;99.90;;;;;;4973718;28;20270;-76
2023/01/26 06:30:52;;;;;;;11.20;7.77;;;0.10;99.90;;;;;;4973604;28;20272;-76
2023/01/26 06:33:18;;;;;;;8.10;7.00;;;0.10;99.90;;;;;;4973766;28;20165;-76
2023/01/26 06:35:43;;;;;;;11.37;8.13;;;0.00;99.90;;;;;;4989750;28;20180;-76
2023/01/26 06:38:09;;;;;;;9.77;7.43;;;-0.10;99.90;;;;;;4973800;28;20181;-76
2023/01/26 06:40:34;;;;;;;12.97;10.70;;;-0.20;99.90;;;;;;4975150;28;20239;-76
2023/01/26 06:43:00;;;;;;;9.43;8.10;;;-0.30;99.90;;;;;;4974848;28;20217;-76
2023/01/26 06:45:25;;;;;;;11.93;9.83;;;-0.30;99.90;;;;;;4973682;28;20181;-76
2023/01/26 06:47:51;;;;;;;10.97;8.23;;;-0.40;99.90;;;;;;4974697;28;20220;-76
2023/01/26 06:50:21;;;;;;;10.70;8.40;;;-0.40;99.90;;;;;;4975583;28;20287;-76
2023/01/26 06:52:50;;;;;;;13.53;8.90;;;-0.30;99.90;;;;;;4974778;28;20208;-76
2023/01/26 06:55:20;;;;;;;10.47;8.57;;;-0.30;99.90;;;;;;4974740;28;20177;-76
2023/01/26 06:57:46;;;;;;;11.93;9.03;;;-0.30;99.90;;;;;;4973951;28;20247;-76
2023/01/26 07:00:12;;;;;;;11.83;8.67;;;-0.20;99.90;;;;;;4974704;28;20212;-76
2023/01/26 07:02:38;;;;;;;10.77;8.03;;;-0.10;99.90;;;;;;4971911;28;20271;-76
2023/01/26 07:05:04;;;;;;;9.63;7.77;;;-0.20;99.90;;;;;;4972479;28;20280;-76
2023/01/26 07:07:30;;;;;;;12.53;9.13;;;-0.20;99.90;;;;;;4973328;28;20216;-76
2023/01/26 07:09:55;;;;;;;10.40;7.97;;;-0.30;99.90;;;;;;4974031;28;20552;-76
2023/01/26 07:12:21;;;;;;;9.70;7.97;;;-0.30;99.90;;;;;;4973408;28;20264;-76
2023/01/26 07:14:47;;;;;;;9.03;7.70;;;-0.20;99.90;;;;;;4975143;28;20204;-76
2023/01/26 07:17:12;;;;;;;9.37;7.00;;;-0.20;99.90;;;;;;4974825;28;20256;-76
2023/01/26 07:19:38;;;;;;;10.00;8.17;;;-0.20;99.90;;;;;;4973340;28;20205;-76
2023/01/26 07:22:04;;;;;;;9.97;7.80;;;-0.10;99.90;;;;;;4974784;28;20188;-76
2023/01/26 07:24:29;;;;;;;9.33;7.00;;;0.00;99.90;;;;;;4973284;28;20215;-76
2023/01/26 07:26:55;;;;;;;8.97;7.00;;;-0.20;99.90;;;;;;4974955;28;20235;-76
2023/01/26 07:29:21;;;;;;;10.17;8.03;;;-0.10;99.90;;;;;;4974491;28;20296;-76
2023/01/26 07:31:47;;;;;;;10.27;7.80;;;-0.30;99.90;;;;;;4973183;28;20703;-76
2023/01/26 07:34:12;;;;;;;10.63;7.93;;;-0.40;99.90;;;;;;4974421;28;20184;-76
2023/01/26 07:36:38;;;;;;;10.60;8.50;;;-0.40;99.90;;;;;;4989562;28;20204;-76
2023/01/26 07:39:05;;;;;;;10.73;7.93;;;-0.50;99.90;;;;;;4974656;28;20547;-76
2023/01/26 07:41:31;;;;;;;10.83;8.57;;;-0.50;99.90;;;;;;4976066;28;20213;-76
2023/01/26 07:43:56;;;;;;;11.30;8.37;;;-0.40;99.90;;;;;;4977787;28;20646;-76
2023/01/26 07:46:23;;;;;;;9.83;7.87;;;-0.30;99.90;;;;;;4976760;28;20201;-76
2023/01/26 07:48:49;;;;;;;9.23;7.73;;;-0.20;99.90;;;;;;4978303;28;20230;-76
2023/01/26 07:51:15;;;;;;;10.77;7.77;;;-0.20;99.90;;;;;;4976994;28;20544;-76
2023/01/26 07:53:42;;;;;;;8.80;7.33;;;-0.10;99.90;;;;;;4977533;28;20268;-76
2023/01/26 07:56:13;;;;;;;9.37;7.43;;;-0.10;99.90;;;;;;4977867;28;20189;-76
2023/01/26 07:58:39;;;;;;;9.40;8.07;;;-0.20;99.90;;;;;;4977896;28;20620;-76
2023/01/26 08:01:13;;;;;;;9.77;7.50;;;-0.10;99.90;;;;;;4978084;28;20205;-76
2023/01/26 08:03:39;;;;;;;10.57;8.07;;;0.00;99.90;;;;;;4977475;28;20179;-76
2023/01/26 08:06:06;;;;;;;10.07;7.87;;;0.00;99.90;;;;;;4976476;28;20200;-76
2023/01/26 08:08:32;;;;;;;10.17;8.10;;;0.00;99.90;;;;;;4976490;28;20204;-76
2023/01/26 08:10:59;;;;;;;9.77;7.70;;;0.00;99.90;;;;;;4978407;28;20177;-76
2023/01/26 08:13:26;;;;;;;10.07;8.40;;;0.10;99.90;;;;;;4976447;28;20181;-76
2023/01/26 08:15:52;;;;;;;9.50;7.97;;;0.10;99.90;;;;;;4977732;28;20210;-76
2023/01/26 08:18:18;;;;;;;12.53;9.43;;;0.20;99.90;;;;;;4976467;28;20185;-76
2023/01/26 08:20:54;;;;;;;10.80;7.77;;;0.10;99.90;;;;;;4976274;28;20173;-76
2023/01/26 08:23:20;;;;;;;10.07;8.43;;;0.10;99.90;;;;;;4976267;28;20259;-76
2023/01/26 08:25:45;;;;;;;12.30;8.97;;;0.00;99.90;;;;;;4976431;28;20223;-76
2023/01/26 08:28:11;;;;;;;10.83;8.30;;;0.10;99.90;;;;;;4976449;28;20357;-76
2023/01/26 08:30:37;;;;;;;10.37;8.10;;;0.00;99.90;;;;;;4976912;28;20192;-76
2023/01/26 08:33:04;;;;;;;9.10;7.47;;;0.00;99.90;;;;;;4977420;28;20220;-76
2023/01/26 08:35:33;;;;;;;11.20;8.47;;;-0.30;99.90;;;;;;4977160;28;20173;-76
2023/01/26 08:37:59;;;;;;;11.13;8.47;;;-0.30;99.90;;;;;;4992400;28;20337;-76
2023/01/26 08:40:25;;;;;;;13.63;8.77;;;-0.10;99.90;;;;;;4975811;28;20268;-76
2023/01/26 08:42:51;;;;;;;11.90;8.47;;;-0.40;99.90;;;;;;4975837;28;20214;-76
2023/01/26 08:45:17;;;;;;;15.00;10.27;;;-0.30;99.90;;;;;;4975816;28;20223;-76
2023/01/26 08:47:44;;;;;;;12.33;9.50;;;-0.30;99.90;;;;;;4976816;28;20201;-76
2023/01/26 08:50:10;;;;;;;15.00;10.80;;;-0.20;99.90;;;;;;4975762;28;20208;-76
2023/01/26 08:52:35;;;;;;;12.40;9.27;;;-0.10;99.90;;;;;;4975810;28;20177;-76
2023/01/26 08:55:03;;;;;;;12.07;9.40;;;-0.20;99.90;;;;;;4975923;28;20180;-76
2023/01/26 08:57:28;;;;;;;13.50;9.80;;;-0.20;99.90;;;;;;4976379;28;20197;-76
2023/01/26 08:59:54;;;;;;;13.87;10.73;;;-0.20;99.90;;;;;;4976401;28;20192;-76
2023/01/26 09:02:20;;;;;;;12.07;9.53;;;-0.10;99.90;;;;;;4975504;28;20177;-76
2023/01/26 09:04:45;;;;;;;10.77;8.80;;;0.00;99.90;;;;;;4975469;28;20185;-76
2023/01/26 09:07:11;;;;;;;11.80;8.20;;;0.00;99.90;;;;;;4975433;28;20208;-76
2023/01/26 09:09:36;;;;;;;9.33;7.63;;;0.10;99.90;;;;;;4975680;28;20659;-76
2023/01/26 09:12:03;;;;;;;11.67;8.43;;;0.10;99.90;;;;;;4975361;28;20177;-76
2023/01/26 09:14:28;;;;;;;10.03;7.57;;;0.00;99.90;;;;;;4975662;28;20272;-76
2023/01/26 09:16:54;;;;;;;11.47;7.97;;;0.00;99.90;;;;;;4975158;28;20287;-76
2023/01/26 09:19:20;;;;;;;9.83;8.07;;;0.10;99.90;;;;;;4975121;28;20204;-76
2023/01/26 09:21:45;;;;;;;10.90;8.00;;;0.20;99.90;;;;;;4976557;28;20658;-76
2023/01/26 09:24:11;;;;;;;11.60;7.73;;;0.20;99.90;;;;;;4976505;28;20188;-76
2023/01/26 09:26:37;;;;;;;10.00;7.30;;;0.10;99.90;;;;;;4974910;28;20211;-76
2023/01/26 09:29:02;;;;;;;12.50;9.60;;;0.10;99.90;;;;;;4976408;28;20219;-76
2023/01/26 09:31:28;;;;;;;9.57;7.43;;;0.30;99.90;;;;;;4974937;28;20184;-76
2023/01/26 09:33:53;;;;;;;11.33;8.30;;;0.30;99.90;;;;;;4976103;28;20173;-76
2023/01/26 09:36:19;;;;;;;12.00;8.67;;;0.30;99.90;;;;;;4974801;28;20196;-76
2023/01/26 09:38:45;;;;;;;10.40;8.27;;;0.30;99.90;;;;;;4975261;28;20184;-76
2023/01/26 09:41:41;;;;;;;9.40;7.70;;;0.40;99.90;;;;;;4975629;28;20235;-76
2023/01/26 09:44:17;;;;;;;10.97;7.30;;;0.40;99.90;;;;;;4976068;28;20175;-76
2023/01/26 09:47:01;;;;;;;10.20;8.10;;;0.40;99.90;;;;;;4975483;28;20212;-76
2023/01/26 09:49:48;;;;;;;8.53;6.90;;;0.40;99.90;;;;;;4974575;28;20208;-76
2023/01/26 09:52:27;;;;;;;8.20;6.70;;;0.40;99.90;;;;;;4974586;28;20215;-76
2023/01/26 09:54:56;;;;;;;8.67;7.20;;;0.40;99.90;;;;;;4976092;28;20169;-76
2023/01/26 09:57:34;;;;;;;8.63;7.17;;;0.40;99.90;;;;;;4974463;28;20239;-76
2023/01/26 10:00:08;;;;;;;7.97;6.43;;;0.40;99.90;;;;;;4976030;28;20161;-76
2023/01/26 10:02:58;;;;;;;8.17;6.43;;;0.40;99.90;;;;;;4976223;28;20158;-76
2023/01/26 10:05:50;;;;;;;8.63;6.57;;;0.40;99.90;;;;;;4973433;28;20553;-76
2023/01/26 10:08:20;;;;;;;10.50;8.27;;;0.40;99.90;;;;;;4975493;28;20718;-76
2023/01/26 10:10:56;;;;;;;11.40;8.57;;;0.50;99.90;;;;;;4975470;28;20204;-76
2023/01/26 10:13:22;;;;;;;9.13;7.30;;;0.50;99.90;;;;;;4975064;28;20181;-76
2023/01/26 10:15:56;;;;;;;7.30;5.83;;;0.50;99.90;;;;;;4974590;28;20181;-76
2023/01/26 10:18:30;;;;;;;6.93;5.97;;;0.60;99.90;;;;;;4974021;28;20189;-76
2023/01/26 10:20:59;;;;;;;5.87;4.87;;;0.70;99.90;;;;;;4974097;28;20192;-76
2023/01/26 10:23:30;;;;;;;6.17;5.53;;;0.60;99.90;;;;;;4974851;28;20195;-76
2023/01/26 10:26:15;;;;;;;6.30;5.57;;;0.60;99.90;;;;;;4975022;28;20208;-76
2023/01/26 10:28:42;;;;;;;6.83;5.67;;;0.30;99.90;;;;;;4975155;28;20229;-76
2023/01/26 10:31:24;;;;;;;6.87;5.80;;;0.20;99.90;;;;;;4975024;28;20177;-76
2023/01/26 10:33:57;;;;;;;8.03;5.53;;;0.20;99.90;;;;;;4973928;28;20185;-76
2023/01/26 10:36:24;;;;;;;5.97;4.93;;;0.10;99.90;;;;;;4974340;28;20197;-76
2023/01/26 10:38:50;;;;;;;6.47;5.00;;;0.20;99.90;;;;;;4974188;28;20188;-76
2023/01/26 10:41:25;;;;;;;6.60;5.37;;;0.20;99.90;;;;;;4975293;28;20255;-76
2023/01/26 10:44:03;;;;;;;5.00;4.50;;;0.20;99.90;;;;;;4973940;28;20203;-76
2023/01/26 10:46:32;;;;;;;5.90;5.23;;;0.30;99.90;;;;;;4975211;28;20231;-76
2023/01/26 10:49:14;;;;;;;5.87;4.60;;;0.40;99.90;;;;;;4974397;28;20318;-76
2023/01/26 10:51:44;;;;;;;5.33;4.83;;;0.50;99.90;;;;;;4974871;28;20168;-76
2023/01/26 10:54:27;;;;;;;4.93;4.40;;;0.50;99.90;;;;;;4973948;28;20185;-76
2023/01/26 10:56:58;;;;;;;5.30;4.80;;;0.60;99.90;;;;;;4975022;28;20678;-76
2023/01/26 10:59:57;;;;;;;5.33;4.83;;;0.40;99.90;;;;;;4974306;28;20320;-76
2023/01/26 11:02:28;;;;;;;6.40;5.03;;;0.40;99.90;;;;;;4975110;28;20244;-76
2023/01/26 11:05:17;;;;;;;5.37;4.87;;;0.40;99.90;;;;;;4973588;28;20635;-76
2023/01/26 11:07:46;;;;;;;9.87;5.67;;;0.30;99.90;;;;;;4973527;28;20236;-76
2023/01/26 11:10:36;;;;;;;5.33;4.83;;;0.50;99.90;;;;;;4973710;28;20184;-76
2023/01/26 11:13:19;;;;;;;6.10;5.50;;;0.60;99.90;;;;;;4974922;28;20184;-76
2023/01/26 11:15:48;;;;;;;6.40;5.43;;;0.60;99.90;;;;;;4974745;28;20172;-76
2023/01/26 11:18:29;;;;;;;6.37;5.67;;;0.40;99.90;;;;;;4979077;28;20185;-76
2023/01/26 11:21:32;;;;;;;6.07;5.37;;;0.50;99.90;;;;;;4977421;28;20199;-76
2023/01/26 11:24:08;;;;;;;6.00;5.33;;;0.70;99.90;;;;;;4977302;28;20197;-76
2023/01/26 11:27:16;;;;;;;5.83;4.93;;;0.80;99.90;;;;;;4977721;28;20204;-76
2023/01/26 11:29:49;;;;;;;5.90;5.30;;;0.60;99.90;;;;;;4977174;28;20212;-76
2023/01/26 11:32:42;;;;;;;7.47;5.80;;;0.60;99.90;;;;;;4977174;28;20185;-76
2023/01/26 11:35:31;;;;;;;6.37;5.60;;;0.70;99.90;;;;;;4977072;28;20180;-76
2023/01/26 11:38:25;;;;;;;6.90;5.83;;;0.80;99.90;;;;;;4978927;28;20169;-76
2023/01/26 11:41:13;;;;;;;7.50;5.73;;;0.80;99.90;;;;;;4976985;28;20177;-76
2023/01/26 11:43:56;;;;;;;8.27;6.80;;;0.80;99.90;;;;;;4978077;28;20189;-76
2023/01/26 11:47:00;;;;;;;7.87;6.83;;;0.70;99.90;;;;;;4977534;28;20597;-76
2023/01/26 11:49:52;;;;;;;7.33;6.03;;;0.70;99.90;;;;;;4977980;28;20218;-76
2023/01/26 11:52:48;;;;;;;9.03;6.87;;;0.80;99.90;;;;;;4976665;28;20181;-76
2023/01/26 11:55:31;;;;;;;7.63;6.60;;;0.80;99.90;;;;;;4978807;28;20323;-76
2023/01/26 11:58:01;;;;;;;7.80;6.77;;;0.80;99.90;;;;;;4977560;28;20326;-76
2023/01/26 12:00:35;;;;;;;8.20;7.10;;;0.50;99.90;;;;;;4978096;28;20165;-76
2023/01/26 12:03:04;;;;;;;9.80;7.10;;;0.50;99.90;;;;;;4976638;28;20181;-76
2023/01/26 12:05:50;;;;;;;10.10;8.07;;;0.50;99.90;;;;;;4976437;28;20191;-76
2023/01/26 12:08:22;;;;;;;9.63;8.00;;;0.50;99.90;;;;;;4977378;28;20212;-76
2023/01/26 12:11:21;;;;;;;11.53;7.50;;;0.40;99.90;;;;;;4976763;28;20181;-76
2023/01/26 12:13:49;;;;;;;9.07;7.13;;;0.50;99.90;;;;;;4976457;28;20180;-76
2023/01/26 12:16:36;;;;;;;9.83;7.47;;;0.40;99.90;;;;;;4977445;28;20243;-76
2023/01/26 12:19:08;;;;;;;10.07;8.03;;;0.20;99.90;;;;;;4976714;28;20219;-76
2023/01/26 12:21:36;;;;;;;8.90;7.77;;;0.30;99.90;;;;;;4976247;28;20182;-76
2023/01/26 12:24:04;;;;;;;9.90;7.67;;;0.30;99.90;;;;;;4976504;28;20189;-76
2023/01/26 12:26:40;;;;;;;9.73;7.93;;;0.30;99.90;;;;;;4975908;28;20205;-76
2023/01/26 12:29:29;;;;;;;10.83;8.50;;;0.30;99.90;;;;;;4975070;28;20208;-76
2023/01/26 12:32:02;;;;;;;9.27;7.57;;;0.20;99.90;;;;;;4976088;28;20177;-76
2023/01/26 12:34:32;;;;;;;10.40;8.30;;;0.20;99.90;;;;;;4977521;28;20166;-76
2023/01/26 12:37:08;;;;;;;9.53;8.23;;;0.20;99.90;;;;;;4977158;28;20259;-76
2023/01/26 12:39:39;;;;;;;10.47;8.63;;;0.30;99.90;;;;;;4976066;28;20183;-76
2023/01/26 12:42:25;;;;;;;9.57;8.57;;;0.30;99.90;;;;;;4976733;28;20180;-76
2023/01/26 12:45:00;;;;;;;11.40;8.80;;;0.40;99.90;;;;;;4977306;28;20253;-76
2023/01/26 12:47:30;;;;;;;11.97;9.07;;;0.60;99.90;;;;;;4976149;28;20200;-76
2023/01/26 12:50:19;;;;;;;11.37;9.27;;;0.60;99.90;;;;;;4977268;28;20204;-76
2023/01/26 12:52:53;;;;;;;11.40;8.90;;;0.60;99.90;;;;;;4975680;28;20227;-76
2023/01/26 12:55:23;;;;;;;10.83;8.97;;;0.60;99.90;;;;;;4976547;28;20187;-77
2023/01/26 12:57:56;;;;;;;10.73;9.17;;;0.70;99.90;;;;;;4975752;28;20197;-76
2023/01/26 13:00:31;;;;;;;11.37;9.03;;;0.70;99.90;;;;;;4975567;28;20193;-75
2023/01/26 13:03:12;;;;;;;12.13;9.60;;;0.70;99.90;;;;;;4975581;28;20180;-75
2023/01/26 13:05:59;;;;;;;14.20;10.07;;;0.70;99.90;;;;;;4975441;28;20293;-75
2023/01/26 13:08:31;;;;;;;9.63;8.47;;;0.70;99.90;;;;;;4977169;28;20244;-75
2023/01/26 13:10:59;;;;;;;10.63;8.57;;;0.60;99.90;;;;;;4976791;28;20276;-75
2023/01/26 13:13:26;;;;;;;8.83;7.93;;;0.60;99.90;;;;;;4975253;28;20647;-75
2023/01/26 13:16:14;;;;;;;10.37;7.53;;;0.50;99.90;;;;;;4975167;28;20201;-75
2023/01/26 13:18:55;;;;;;;8.50;7.30;;;0.50;99.90;;;;;;4975536;28;20569;-76
2023/01/26 13:21:42;;;;;;;7.77;6.60;;;0.60;99.90;;;;;;4975151;28;20208;-76
2023/01/26 13:24:17;;;;;;;8.03;7.13;;;0.70;99.90;;;;;;4975114;28;20208;-75
2023/01/26 13:26:55;;;;;;;7.37;6.67;;;0.80;99.90;;;;;;4975037;28;20200;-75
2023/01/26 13:29:24;;;;;;;7.43;6.60;;;0.90;99.90;;;;;;4976204;28;20199;-75
2023/01/26 13:31:54;;;;;;;8.07;7.17;;;1.00;99.90;;;;;;4975065;28;20206;-75
2023/01/26 13:34:38;;;;;;;8.27;7.47;;;1.10;99.90;;;;;;4976197;28;20224;-75
2023/01/26 13:37:17;;;;;;;8.17;7.37;;;1.00;99.90;;;;;;4975269;28;20205;-75
2023/01/26 13:39:50;;;;;;;8.23;7.27;;;0.90;99.90;;;;;;4974621;28;20192;-75
2023/01/26 13:42:26;;;;;;;8.40;6.97;;;0.90;99.90;;;;;;4975119;28;20208;-75
2023/01/26 13:44:57;;;;;;;8.67;7.37;;;0.90;99.90;;;;;;4976211;28;20180;-75
2023/01/26 13:47:42;;;;;;;9.00;7.93;;;0.90;99.90;;;;;;4975058;28;20205;-75
2023/01/26 13:50:36;;;;;;;10.07;8.27;;;1.00;99.90;;;;;;4974812;28;20189;-75